createdAt,value
2023-02-11T00:01:28.204Z,15.60
2023-02-11T00:03:56.591Z,17.58
2023-02-11T00:06:25.826Z,16.65
2023-02-11T00:08:54.195Z,18.38
2023-02-11T00:11:23.107Z,16.25
2023-02-11T00:13:51.182Z,16.25
2023-02-11T00:16:20.944Z,16.20
2023-02-11T00:18:48.908Z,16.20
2023-02-11T00:21:18.713Z,15.88
2023-02-11T00:23:47.102Z,16.52
2023-02-11T00:26:18.111Z,17.05
2023-02-11T00:28:47.087Z,16.83
2023-02-11T00:31:16.160Z,16.27
2023-02-11T00:33:44.735Z,16.60
2023-02-11T00:36:18.786Z,16.95
2023-02-11T00:38:48.905Z,15.82
2023-02-11T00:41:17.608Z,16.48
2023-02-11T00:43:45.897Z,16.33
2023-02-11T00:46:14.612Z,17.40
2023-02-11T00:48:42.668Z,15.98
2023-02-11T00:51:10.967Z,16.30
2023-02-11T00:53:39.044Z,16.48
2023-02-11T00:56:07.628Z,17.08
2023-02-11T00:58:36.158Z,16.98
2023-02-11T01:13:42.453Z,16.55
2023-02-11T01:16:11.349Z,15.38
2023-02-11T01:18:39.826Z,16.52
2023-02-11T01:21:07.908Z,17.90
2023-02-11T01:23:35.756Z,15.25
2023-02-11T01:26:03.941Z,17.25
2023-02-11T01:28:32.478Z,17.20
2023-02-11T01:31:02.577Z,16.95
2023-02-11T01:33:30.730Z,17.40
2023-02-11T01:36:04.407Z,17.27
2023-02-11T01:38:34.074Z,17.65
2023-02-11T01:41:10.866Z,17.77
2023-02-11T01:43:43.097Z,16.45
2023-02-11T01:46:37.706Z,18.40
2023-02-11T01:49:15.720Z,19.33
2023-02-11T01:51:52.174Z,17.08
2023-02-11T01:54:41.374Z,17.80
2023-02-11T01:57:27.520Z,16.58
2023-02-11T02:00:16.637Z,17.02
2023-02-11T02:02:51.930Z,18.00
2023-02-11T02:05:19.583Z,16.27
2023-02-11T02:07:56.146Z,17.38
2023-02-11T04:47:58.711Z,17.05
2023-02-11T04:50:26.867Z,15.82
2023-02-11T04:52:54.897Z,16.25
2023-02-11T04:55:23.039Z,18.38
2023-02-11T04:57:50.963Z,16.88
2023-02-11T05:00:18.980Z,18.38
2023-02-11T05:02:47.014Z,16.38
2023-02-11T05:05:14.980Z,16.67
2023-02-11T05:07:42.874Z,17.55
2023-02-11T05:10:10.961Z,16.70
2023-02-11T05:12:38.656Z,17.95
2023-02-11T05:15:06.934Z,16.52
2023-02-11T05:17:34.747Z,17.65
2023-02-11T05:20:02.598Z,18.58
2023-02-11T05:22:30.568Z,16.67
2023-02-11T05:24:58.365Z,17.80
2023-02-11T05:27:26.373Z,17.77
2023-02-11T05:29:54.287Z,16.25
2023-02-11T05:32:22.236Z,16.80
2023-02-11T05:34:50.348Z,17.60
2023-02-11T05:37:18.752Z,16.00
2023-02-11T05:39:46.891Z,17.40
2023-02-11T05:42:14.898Z,17.67
2023-02-11T05:44:42.748Z,15.27
2023-02-11T05:47:10.593Z,15.60
2023-02-11T05:49:38.337Z,14.45
2023-02-11T05:52:06.265Z,15.20
2023-02-11T05:54:34.186Z,15.20
2023-02-11T05:57:02.315Z,16.65
2023-02-11T05:59:30.454Z,15.10
2023-02-11T06:01:58.317Z,14.95
2023-02-11T06:04:26.398Z,14.95
2023-02-11T06:06:54.235Z,15.52
2023-02-11T06:09:22.220Z,16.05
2023-02-11T06:11:50.264Z,14.95
2023-02-11T06:14:19.594Z,14.85
2023-02-11T06:16:47.443Z,15.90
2023-02-11T06:19:15.060Z,14.52
2023-02-11T06:21:44.406Z,14.85
2023-02-11T06:24:12.918Z,15.10
2023-02-11T06:26:43.608Z,15.07
2023-02-11T06:29:11.601Z,15.57
2023-02-11T06:31:39.749Z,14.20
2023-02-11T06:34:08.846Z,13.80
2023-02-11T06:36:36.994Z,14.15
2023-02-11T06:39:06.252Z,13.02
2023-02-11T06:41:34.565Z,13.95
2023-02-11T06:44:02.521Z,14.45
2023-02-11T06:46:30.465Z,14.07
2023-02-11T06:48:58.243Z,14.10
2023-02-11T06:51:25.975Z,13.25
2023-02-11T06:53:53.814Z,13.55
2023-02-11T06:56:24.564Z,13.88
2023-02-11T06:58:56.384Z,13.75
2023-02-11T07:01:25.067Z,13.45
2023-02-11T07:03:53.392Z,14.80
2023-02-11T07:06:23.515Z,14.70
2023-02-11T07:08:51.273Z,13.77
2023-02-11T07:11:27.799Z,14.68
2023-02-11T07:14:00.055Z,14.27
2023-02-11T07:16:28.034Z,15.82
2023-02-11T07:18:55.856Z,14.23
2023-02-11T07:21:24.556Z,14.15
2023-02-11T07:23:52.662Z,15.60
2023-02-11T07:26:29.454Z,17.02
2023-02-11T07:28:57.497Z,14.75
2023-02-11T07:31:28.566Z,16.40
2023-02-11T07:34:00.089Z,16.00
2023-02-11T07:36:29.438Z,17.00
2023-02-11T07:38:57.249Z,15.50
2023-02-11T07:41:26.231Z,16.48
2023-02-11T07:43:54.640Z,17.50
2023-02-11T07:46:25.241Z,17.33
2023-02-11T07:48:53.423Z,16.42
2023-02-11T07:51:24.328Z,17.73
2023-02-11T07:53:52.571Z,18.63
2023-02-11T07:56:21.842Z,17.90
2023-02-11T07:58:49.751Z,17.92
2023-02-11T08:01:25.223Z,19.10
2023-02-11T08:03:54.045Z,19.30
2023-02-11T08:06:23.778Z,18.27
2023-02-11T08:08:52.285Z,18.25
2023-02-11T08:11:25.844Z,18.75
2023-02-11T08:13:54.621Z,19.90
2023-02-11T08:16:25.109Z,19.48
2023-02-11T08:18:53.927Z,19.08
2023-02-11T08:21:21.984Z,19.02
2023-02-11T08:23:50.216Z,18.30
2023-02-11T08:26:20.971Z,20.85
2023-02-11T08:28:49.992Z,19.55
2023-02-11T08:31:20.650Z,19.85
2023-02-11T08:33:49.304Z,19.40
2023-02-11T08:36:19.868Z,20.80
2023-02-11T08:38:48.331Z,18.92
2023-02-11T08:41:16.479Z,19.77
2023-02-11T08:43:45.422Z,19.05
2023-02-11T08:46:15.613Z,19.65
2023-02-11T08:48:44.398Z,19.90
2023-02-11T08:51:16.507Z,19.52
2023-02-11T08:53:44.428Z,21.17
2023-02-11T08:56:13.685Z,21.95
2023-02-11T08:58:42.460Z,20.30
2023-02-11T09:01:15.421Z,21.25
2023-02-11T09:03:43.465Z,19.73
2023-02-11T09:06:13.027Z,19.60
2023-02-11T09:08:46.308Z,20.45
2023-02-11T09:11:14.988Z,20.70
2023-02-11T09:13:44.368Z,21.00
2023-02-11T09:16:21.286Z,21.35
2023-02-11T09:18:49.899Z,21.50
2023-02-11T09:21:19.377Z,20.85
2023-02-11T09:23:48.046Z,21.17
2023-02-11T09:26:19.104Z,20.98
2023-02-11T09:28:47.929Z,20.52
2023-02-11T09:31:18.903Z,19.77
2023-02-11T09:33:48.409Z,18.65
2023-02-11T09:36:20.351Z,20.85
2023-02-11T09:38:48.662Z,17.92
2023-02-11T09:41:42.204Z,20.60
2023-02-11T09:44:24.656Z,20.13
2023-02-11T09:47:23.186Z,19.45
2023-02-11T09:50:05.316Z,19.33
2023-02-11T09:53:05.352Z,17.80
2023-02-11T09:55:40.072Z,18.77
2023-02-11T09:58:21.536Z,17.95
2023-02-11T10:01:32.827Z,18.58
2023-02-11T10:04:09.924Z,20.67
2023-02-11T10:06:55.988Z,19.02
2023-02-11T10:09:49.095Z,20.45
2023-02-11T10:12:38.575Z,18.88
2023-02-11T10:15:18.032Z,18.67
2023-02-11T10:17:49.141Z,18.48
2023-02-11T10:20:30.639Z,20.42
2023-02-11T10:23:10.777Z,19.38
2023-02-11T10:25:45.441Z,18.40
2023-02-11T10:28:17.620Z,18.70
2023-02-11T10:31:07.945Z,19.85
2023-02-11T10:33:52.010Z,19.13
2023-02-11T10:36:28.730Z,18.92
2023-02-11T10:39:02.406Z,20.00
2023-02-11T10:41:40.542Z,18.95
2023-02-11T10:44:08.997Z,19.42
2023-02-11T10:46:40.486Z,17.92
2023-02-11T10:49:14.135Z,20.42
2023-02-11T10:51:44.219Z,18.65
2023-02-11T10:54:21.493Z,17.98
2023-02-11T10:56:53.065Z,17.83
2023-02-11T10:59:26.750Z,18.02
2023-02-11T11:01:59.508Z,18.20
2023-02-11T11:04:33.998Z,18.95
2023-02-11T11:07:39.487Z,17.88
2023-02-11T11:10:28.053Z,18.08
2023-02-11T11:12:56.994Z,19.27
2023-02-11T11:15:27.217Z,17.65
2023-02-11T11:18:51.289Z,17.15
2023-02-11T11:22:33.860Z,17.70
2023-02-11T11:26:16.864Z,17.70
2023-02-11T11:29:59.465Z,16.90
2023-02-11T11:37:06.132Z,15.70
2023-02-11T11:40:49.022Z,17.65
2023-02-11T11:44:31.884Z,18.33
2023-02-11T11:48:14.481Z,17.25
2023-02-11T11:55:20.989Z,18.27
2023-02-11T11:59:04.116Z,18.38
2023-02-11T12:02:46.813Z,16.38
2023-02-11T12:09:53.629Z,15.57
2023-02-11T12:13:36.378Z,14.98
2023-02-11T12:17:19.251Z,14.80
2023-02-11T12:21:02.323Z,15.63
2023-02-11T12:24:45.008Z,16.10
2023-02-11T12:28:27.571Z,15.23
2023-02-11T12:35:34.042Z,15.20
2023-02-11T12:39:16.657Z,14.75
2023-02-11T12:46:23.186Z,13.55
2023-02-11T12:50:06.043Z,13.68
2023-02-11T12:58:01.746Z,13.48
2023-02-11T13:01:44.440Z,11.88
2023-02-11T13:05:27.113Z,11.32
2023-02-11T13:12:33.580Z,11.13
2023-02-11T13:16:09.653Z,11.02
2023-02-11T13:19:00.774Z,10.40
2023-02-11T13:21:56.454Z,12.30
2023-02-11T13:25:01.797Z,9.55
2023-02-11T13:28:18.937Z,9.90
2023-02-11T13:30:52.287Z,9.25
2023-02-11T13:33:32.094Z,10.95
2023-02-11T13:36:00.353Z,9.95
2023-02-11T13:38:30.987Z,9.35
2023-02-11T13:41:27.667Z,10.13
2023-02-11T13:44:11.606Z,9.85
2023-02-11T13:47:13.875Z,9.95
2023-02-11T13:49:43.316Z,9.95
2023-02-11T13:52:28.673Z,10.25
2023-02-11T13:55:03.825Z,9.93
2023-02-11T13:57:34.755Z,10.30
2023-02-11T14:00:10.859Z,9.88
2023-02-11T14:02:57.444Z,9.85
2023-02-11T14:05:45.220Z,9.40
2023-02-11T14:08:34.531Z,9.63
2023-02-11T14:11:12.503Z,10.80
2023-02-11T14:13:49.685Z,9.77
2023-02-11T14:16:36.721Z,10.80
2023-02-11T14:19:07.668Z,10.38
2023-02-11T14:21:38.812Z,9.57
2023-02-11T14:24:07.280Z,9.80
2023-02-11T14:26:58.631Z,10.70
2023-02-11T14:29:54.119Z,9.82
2023-02-11T14:32:41.206Z,11.55
2023-02-11T14:35:23.197Z,10.18
2023-02-11T14:38:05.866Z,9.82
2023-02-11T14:40:47.124Z,9.95
2023-02-11T14:43:22.327Z,10.23
2023-02-11T14:45:56.281Z,10.98
2023-02-11T14:48:30.401Z,12.70
2023-02-11T14:51:08.366Z,12.55
2023-02-11T14:53:36.548Z,11.90
2023-02-11T14:56:05.633Z,11.57
2023-02-11T14:58:34.928Z,10.65
2023-02-11T15:01:23.149Z,10.63
2023-02-11T15:03:51.240Z,9.85
2023-02-11T15:06:25.137Z,10.68
2023-02-11T15:09:03.762Z,10.50
2023-02-11T15:11:42.625Z,10.07
2023-02-11T15:14:17.276Z,10.07
2023-02-11T15:16:46.670Z,9.82
2023-02-11T15:19:37.720Z,10.63
2023-02-11T15:22:22.818Z,12.02
2023-02-11T15:25:16.892Z,10.60
2023-02-11T15:27:49.905Z,10.80
2023-02-11T15:30:27.974Z,9.32
2023-02-11T15:33:00.391Z,9.93
2023-02-11T15:35:31.232Z,9.73
2023-02-11T15:38:00.339Z,10.57
2023-02-11T15:40:35.999Z,10.05
2023-02-11T15:43:09.350Z,10.38
2023-02-11T15:45:37.156Z,10.43
2023-02-11T15:48:27.091Z,10.82
2023-02-11T15:51:28.844Z,9.60
2023-02-11T15:54:22.977Z,10.65
2023-02-11T15:56:59.380Z,10.15
2023-02-11T15:59:36.137Z,10.38
2023-02-11T16:02:09.692Z,10.15
2023-02-11T16:04:37.671Z,9.65
2023-02-11T16:07:06.734Z,9.88
2023-02-11T16:09:36.169Z,9.82
2023-02-11T16:12:27.415Z,9.30
2023-02-11T16:14:59.311Z,10.20
2023-02-11T16:19:56.270Z,10.40
2023-02-11T16:22:29.513Z,9.80
2023-02-11T16:25:01.087Z,11.35
2023-02-11T16:27:49.437Z,9.93
2023-02-11T16:30:34.216Z,9.73
2023-02-11T16:33:02.120Z,9.65
2023-02-11T16:35:30.423Z,8.70
2023-02-11T16:37:58.377Z,8.93
2023-02-11T16:40:26.354Z,9.55
2023-02-11T16:42:54.305Z,9.48
2023-02-11T16:45:28.061Z,8.98
2023-02-11T16:47:58.577Z,9.93
2023-02-11T16:50:26.961Z,10.43
2023-02-11T16:52:55.339Z,9.05
2023-02-11T16:55:23.216Z,9.45
2023-02-11T16:57:51.188Z,10.27
2023-02-11T17:00:19.606Z,9.55
2023-02-11T17:02:47.715Z,8.57
2023-02-11T17:05:23.173Z,8.52
2023-02-11T17:07:51.165Z,9.38
2023-02-11T17:10:25.178Z,9.48
2023-02-11T17:12:56.268Z,8.80
2023-02-11T17:15:24.109Z,9.88
2023-02-11T17:17:54.922Z,10.70
2023-02-11T17:20:22.940Z,9.82
2023-02-11T17:22:51.036Z,10.60
2023-02-11T17:25:19.406Z,9.48
2023-02-11T17:27:47.368Z,10.45
2023-02-11T17:30:15.548Z,10.43
2023-02-11T17:32:43.989Z,11.07
2023-02-11T17:35:11.899Z,9.90
2023-02-11T17:37:39.772Z,11.43
2023-02-11T17:40:08.799Z,9.50
2023-02-11T17:42:36.697Z,10.13
2023-02-11T17:45:04.970Z,10.40
2023-02-11T17:47:32.749Z,10.07
2023-02-11T17:50:00.542Z,11.15
2023-02-11T17:52:28.581Z,10.40
2023-02-11T17:54:58.046Z,10.40
2023-02-11T17:57:26.114Z,10.75
2023-02-11T17:59:53.754Z,9.82
2023-02-11T18:02:21.525Z,10.20
2023-02-11T18:04:49.449Z,10.43
2023-02-11T18:07:17.634Z,10.15
2023-02-11T18:09:45.551Z,11.13
2023-02-11T18:12:13.764Z,10.15
2023-02-11T18:14:42.159Z,10.18
2023-02-11T18:17:10.018Z,10.43
2023-02-11T18:19:38.399Z,11.13
2023-02-11T18:22:10.059Z,9.85
2023-02-11T18:24:37.949Z,11.32
2023-02-11T18:27:05.914Z,10.43
2023-02-11T18:29:35.798Z,10.65
2023-02-11T18:32:03.683Z,11.95
2023-02-11T18:34:33.192Z,9.80
2023-02-11T18:37:01.604Z,11.52
2023-02-11T18:39:29.462Z,10.32
2023-02-11T18:41:59.081Z,11.63
2023-02-11T18:44:28.735Z,11.63
2023-02-11T18:46:56.593Z,10.23
2023-02-11T18:49:24.527Z,11.02
2023-02-11T18:51:52.310Z,10.25
2023-02-11T18:54:20.595Z,11.18
2023-02-11T18:56:48.326Z,11.00
2023-02-11T18:59:16.020Z,10.90
2023-02-11T19:01:46.989Z,9.70
2023-02-11T19:04:20.548Z,11.57
2023-02-11T19:06:50.058Z,10.73
2023-02-11T19:09:19.951Z,10.93
2023-02-11T19:11:47.920Z,11.32
2023-02-11T19:14:18.085Z,11.07
2023-02-11T19:16:46.609Z,11.98
2023-02-11T19:19:15.402Z,11.02
2023-02-11T19:21:47.600Z,10.65
2023-02-11T19:24:18.958Z,11.50
2023-02-11T19:26:48.157Z,11.85
2023-02-11T19:29:16.661Z,10.63
2023-02-11T19:31:44.782Z,11.25
2023-02-11T19:34:14.516Z,12.18
2023-02-11T19:36:43.436Z,13.15
2023-02-11T19:39:11.613Z,11.52
2023-02-11T19:41:39.950Z,10.68
2023-02-11T19:44:11.746Z,10.75
2023-02-11T19:46:41.156Z,11.63
2023-02-11T19:49:10.213Z,11.55
2023-02-11T19:51:39.646Z,10.70
2023-02-11T19:54:08.050Z,11.57
2023-02-11T19:56:38.121Z,11.43
2023-02-11T19:59:09.311Z,11.38
2023-02-11T20:01:40.872Z,13.45
2023-02-11T20:04:09.733Z,11.48
2023-02-11T20:06:37.550Z,10.85
2023-02-11T20:09:10.030Z,11.30
2023-02-11T20:11:38.795Z,11.98
2023-02-11T20:14:07.466Z,11.55
2023-02-11T20:16:47.665Z,11.38
2023-02-11T20:19:18.478Z,13.32
2023-02-11T20:21:48.576Z,11.82
2023-02-11T20:24:20.379Z,12.60
2023-02-11T20:26:48.764Z,12.50
2023-02-11T20:29:17.856Z,13.50
2023-02-11T20:31:46.311Z,14.27
2023-02-11T20:34:14.600Z,14.00
2023-02-11T20:36:42.848Z,13.60
2023-02-11T20:39:17.381Z,14.75
2023-02-11T20:41:46.396Z,15.18
2023-02-11T20:44:15.538Z,14.30
2023-02-11T20:46:46.912Z,14.50
2023-02-11T20:49:25.716Z,14.38
2023-02-11T20:51:54.193Z,13.73
2023-02-11T20:54:23.115Z,16.58
2023-02-11T20:56:52.120Z,16.58
2023-02-11T20:59:21.330Z,17.80
2023-02-11T21:01:54.455Z,15.63
2023-02-11T21:04:27.725Z,15.57
2023-02-11T21:06:59.895Z,16.52
2023-02-11T21:09:32.286Z,17.08
2023-02-11T21:12:00.721Z,18.15
2023-02-11T21:14:29.902Z,16.27
2023-02-11T21:16:58.313Z,16.58
2023-02-11T21:19:26.577Z,18.25
2023-02-11T21:21:55.350Z,17.50
2023-02-11T21:24:25.891Z,17.40
2023-02-11T21:26:53.700Z,16.92
2023-02-11T21:29:21.518Z,16.33
2023-02-11T21:31:49.736Z,16.00
2023-02-11T21:34:20.941Z,15.38
2023-02-11T21:36:51.385Z,17.00
2023-02-11T21:39:20.356Z,17.80
2023-02-11T21:41:48.814Z,15.23
2023-02-11T21:44:16.797Z,17.05
2023-02-11T21:46:44.955Z,15.98
2023-02-11T21:49:13.043Z,16.70
2023-02-11T21:51:41.136Z,15.63
2023-02-11T21:54:08.998Z,16.73
2023-02-11T21:56:37.563Z,16.30
2023-02-11T21:59:05.400Z,17.45
2023-02-11T22:01:37.099Z,16.75
2023-02-11T22:06:34.831Z,14.00
2023-02-11T22:09:07.573Z,15.90
2023-02-11T22:11:35.540Z,15.60
2023-02-11T22:14:03.488Z,15.38
2023-02-11T22:16:32.122Z,15.45
2023-02-11T22:19:02.535Z,14.65
2023-02-11T22:21:31.967Z,16.02
2023-02-11T22:24:02.335Z,14.93
2023-02-11T22:26:32.837Z,15.00
2023-02-11T22:29:00.808Z,14.30
2023-02-11T22:31:32.204Z,16.33
2023-02-11T22:34:00.803Z,14.38
2023-02-11T22:36:34.777Z,14.38
2023-02-11T22:39:12.894Z,15.10
2023-02-11T22:41:46.421Z,15.85
2023-02-11T22:44:16.603Z,13.70
2023-02-11T22:46:45.423Z,14.93
2023-02-11T22:49:18.888Z,15.38
2023-02-11T22:51:47.102Z,13.48
2023-02-11T22:54:17.101Z,13.50
2023-02-11T22:56:45.980Z,12.98
2023-02-11T22:59:16.187Z,13.25
2023-02-11T23:01:44.675Z,13.80
2023-02-11T23:04:14.611Z,13.68
2023-02-11T23:06:42.744Z,13.55
2023-02-11T23:09:15.304Z,13.95
2023-02-11T23:11:46.344Z,15.65
2023-02-11T23:14:14.316Z,15.13
2023-02-11T23:16:42.516Z,16.55
2023-02-11T23:19:14.318Z,15.50
2023-02-11T23:21:42.410Z,16.17
2023-02-11T23:24:13.714Z,18.42
2023-02-11T23:26:42.552Z,18.20
2023-02-11T23:29:11.238Z,16.05
2023-02-11T23:31:41.432Z,17.27
2023-02-11T23:34:09.979Z,15.88
2023-02-11T23:36:38.588Z,16.35
2023-02-11T23:39:06.665Z,17.75
2023-02-11T23:41:34.751Z,14.18
2023-02-11T23:44:02.753Z,16.25
2023-02-11T23:46:30.727Z,14.52
2023-02-11T23:48:58.699Z,14.25
2023-02-11T23:51:26.603Z,11.50
2023-02-11T23:53:56.397Z,11.27
2023-02-11T23:56:26.660Z,10.60
2023-02-11T23:58:56.955Z,10.90
